sensor_id;sensor_type;location;lat;lon;timestamp;P1;durP1;ratioP1;P2;durP2;ratioP2
70026;SDS011;57506;50.092;15.804;2023-07-29T00:01:19;1.98;;;0.50;;
70026;SDS011;57506;50.092;15.804;2023-07-29T00:03:45;1.60;;;0.30;;
70026;SDS011;57506;50.092;15.804;2023-07-29T00:06:10;1.70;;;0.35;;
70026;SDS011;57506;50.092;15.804;2023-07-29T00:08:36;1.80;;;0.37;;
70026;SDS011;57506;50.092;15.804;2023-07-29T00:11:01;1.90;;;0.50;;
70026;SDS011;57506;50.092;15.804;2023-07-29T00:13:27;1.90;;;0.50;;
70026;SDS011;57506;50.092;15.804;2023-07-29T00:15:53;1.90;;;0.50;;
70026;SDS011;57506;50.092;15.804;2023-07-29T00:18:20;1.65;;;0.30;;
70026;SDS011;57506;50.092;15.804;2023-07-29T00:20:46;1.67;;;0.30;;
70026;SDS011;57506;50.092;15.804;2023-07-29T00:23:12;1.60;;;0.30;;
70026;SDS011;57506;50.092;15.804;2023-07-29T00:25:37;2.08;;;0.60;;
70026;SDS011;57506;50.092;15.804;2023-07-29T00:28:03;1.93;;;0.50;;
70026;SDS011;57506;50.092;15.804;2023-07-29T00:30:29;1.90;;;0.40;;
70026;SDS011;57506;50.092;15.804;2023-07-29T00:32:54;1.57;;;0.30;;
70026;SDS011;57506;50.092;15.804;2023-07-29T00:35:20;1.60;;;0.30;;
70026;SDS011;57506;50.092;15.804;2023-07-29T00:37:45;2.50;;;1.27;;
70026;SDS011;57506;50.092;15.804;2023-07-29T00:40:15;1.90;;;0.50;;
70026;SDS011;57506;50.092;15.804;2023-07-29T00:42:44;1.95;;;0.40;;
70026;SDS011;57506;50.092;15.804;2023-07-29T00:45:10;1.97;;;0.50;;
70026;SDS011;57506;50.092;15.804;2023-07-29T00:47:35;1.80;;;0.40;;
70026;SDS011;57506;50.092;15.804;2023-07-29T00:50:01;2.03;;;0.57;;
70026;SDS011;57506;50.092;15.804;2023-07-29T00:52:28;1.80;;;0.40;;
70026;SDS011;57506;50.092;15.804;2023-07-29T00:54:53;1.73;;;0.40;;
70026;SDS011;57506;50.092;15.804;2023-07-29T00:57:19;1.70;;;0.30;;
70026;SDS011;57506;50.092;15.804;2023-07-29T00:59:45;1.90;;;0.67;;
70026;SDS011;57506;50.092;15.804;2023-07-29T01:02:11;1.70;;;0.30;;
70026;SDS011;57506;50.092;15.804;2023-07-29T01:04:37;1.80;;;0.40;;
70026;SDS011;57506;50.092;15.804;2023-07-29T01:07:14;1.63;;;0.43;;
70026;SDS011;57506;50.092;15.804;2023-07-29T01:09:55;1.85;;;0.40;;
70026;SDS011;57506;50.092;15.804;2023-07-29T01:12:27;1.90;;;0.47;;
70026;SDS011;57506;50.092;15.804;2023-07-29T01:17:55;2.03;;;0.52;;
70026;SDS011;57506;50.092;15.804;2023-07-29T01:20:32;2.00;;;0.60;;
70026;SDS011;57506;50.092;15.804;2023-07-29T01:22:59;2.05;;;0.57;;
70026;SDS011;57506;50.092;15.804;2023-07-29T01:25:24;1.80;;;0.40;;
70026;SDS011;57506;50.092;15.804;2023-07-29T01:27:51;2.00;;;0.53;;
70026;SDS011;57506;50.092;15.804;2023-07-29T01:30:17;1.75;;;0.32;;
70026;SDS011;57506;50.092;15.804;2023-07-29T01:35:21;1.90;;;0.47;;
70026;SDS011;57506;50.092;15.804;2023-07-29T01:37:53;1.90;;;0.50;;
70026;SDS011;57506;50.092;15.804;2023-07-29T01:40:23;3.00;;;2.50;;
70026;SDS011;57506;50.092;15.804;2023-07-29T01:42:52;1.95;;;0.50;;
70026;SDS011;57506;50.092;15.804;2023-07-29T01:45:18;1.95;;;0.50;;
70026;SDS011;57506;50.092;15.804;2023-07-29T01:47:43;1.73;;;0.40;;
70026;SDS011;57506;50.092;15.804;2023-07-29T01:50:09;2.00;;;0.50;;
70026;SDS011;57506;50.092;15.804;2023-07-29T01:52:35;1.90;;;0.50;;
70026;SDS011;57506;50.092;15.804;2023-07-29T01:55:01;1.90;;;0.40;;
70026;SDS011;57506;50.092;15.804;2023-07-29T01:57:27;1.88;;;0.40;;
70026;SDS011;57506;50.092;15.804;2023-07-29T01:59:52;1.50;;;0.30;;
70026;SDS011;57506;50.092;15.804;2023-07-29T02:02:18;1.93;;;0.40;;
70026;SDS011;57506;50.092;15.804;2023-07-29T02:04:43;1.92;;;0.40;;
70026;SDS011;57506;50.092;15.804;2023-07-29T02:07:10;1.83;;;0.40;;
70026;SDS011;57506;50.092;15.804;2023-07-29T02:09:35;1.90;;;0.40;;
70026;SDS011;57506;50.092;15.804;2023-07-29T02:12:01;1.73;;;0.37;;
70026;SDS011;57506;50.092;15.804;2023-07-29T02:14:27;1.70;;;0.30;;
70026;SDS011;57506;50.092;15.804;2023-07-29T02:16:53;1.57;;;0.30;;
70026;SDS011;57506;50.092;15.804;2023-07-29T02:19:18;1.90;;;0.40;;
70026;SDS011;57506;50.092;15.804;2023-07-29T02:21:44;1.90;;;0.50;;
70026;SDS011;57506;50.092;15.804;2023-07-29T02:24:09;1.63;;;0.30;;
70026;SDS011;57506;50.092;15.804;2023-07-29T02:26:35;1.60;;;0.30;;
70026;SDS011;57506;50.092;15.804;2023-07-29T02:29:00;1.60;;;0.30;;
70026;SDS011;57506;50.092;15.804;2023-07-29T02:31:26;1.80;;;0.40;;
70026;SDS011;57506;50.092;15.804;2023-07-29T02:33:52;1.88;;;0.40;;
70026;SDS011;57506;50.092;15.804;2023-07-29T02:36:17;1.80;;;0.33;;
70026;SDS011;57506;50.092;15.804;2023-07-29T02:38:43;2.00;;;0.60;;
70026;SDS011;57506;50.092;15.804;2023-07-29T02:41:09;2.20;;;0.50;;
70026;SDS011;57506;50.092;15.804;2023-07-29T02:43:37;1.80;;;0.40;;
70026;SDS011;57506;50.092;15.804;2023-07-29T02:46:03;1.48;;;0.30;;
70026;SDS011;57506;50.092;15.804;2023-07-29T02:48:29;1.88;;;0.40;;
70026;SDS011;57506;50.092;15.804;2023-07-29T02:50:55;2.00;;;0.43;;
70026;SDS011;57506;50.092;15.804;2023-07-29T02:53:21;1.90;;;0.40;;
70026;SDS011;57506;50.092;15.804;2023-07-29T02:55:48;1.90;;;0.40;;
70026;SDS011;57506;50.092;15.804;2023-07-29T02:58:13;2.10;;;0.50;;
70026;SDS011;57506;50.092;15.804;2023-07-29T03:00:39;2.03;;;0.40;;
70026;SDS011;57506;50.092;15.804;2023-07-29T03:03:07;1.50;;;0.30;;
70026;SDS011;57506;50.092;15.804;2023-07-29T03:05:33;1.75;;;0.35;;
70026;SDS011;57506;50.092;15.804;2023-07-29T03:07:58;1.90;;;0.40;;
70026;SDS011;57506;50.092;15.804;2023-07-29T03:10:24;1.70;;;0.30;;
70026;SDS011;57506;50.092;15.804;2023-07-29T03:12:50;1.90;;;0.40;;
70026;SDS011;57506;50.092;15.804;2023-07-29T03:15:16;2.00;;;0.50;;
70026;SDS011;57506;50.092;15.804;2023-07-29T03:17:41;1.70;;;0.40;;
70026;SDS011;57506;50.092;15.804;2023-07-29T03:20:07;1.60;;;0.30;;
70026;SDS011;57506;50.092;15.804;2023-07-29T03:22:33;2.10;;;0.50;;
70026;SDS011;57506;50.092;15.804;2023-07-29T03:24:58;1.93;;;0.50;;
70026;SDS011;57506;50.092;15.804;2023-07-29T03:27:24;1.60;;;0.50;;
70026;SDS011;57506;50.092;15.804;2023-07-29T03:29:50;2.00;;;0.45;;
70026;SDS011;57506;50.092;15.804;2023-07-29T03:32:15;1.67;;;0.37;;
70026;SDS011;57506;50.092;15.804;2023-07-29T03:34:40;1.50;;;0.30;;
70026;SDS011;57506;50.092;15.804;2023-07-29T03:37:06;1.90;;;0.40;;
70026;SDS011;57506;50.092;15.804;2023-07-29T03:39:32;2.00;;;0.50;;
70026;SDS011;57506;50.092;15.804;2023-07-29T03:41:57;1.40;;;0.20;;
70026;SDS011;57506;50.092;15.804;2023-07-29T03:44:23;1.70;;;0.37;;
70026;SDS011;57506;50.092;15.804;2023-07-29T03:46:49;1.60;;;0.30;;
70026;SDS011;57506;50.092;15.804;2023-07-29T03:49:14;1.87;;;0.40;;
70026;SDS011;57506;50.092;15.804;2023-07-29T03:51:40;2.20;;;0.60;;
70026;SDS011;57506;50.092;15.804;2023-07-29T03:54:06;1.97;;;0.50;;
70026;SDS011;57506;50.092;15.804;2023-07-29T03:56:31;1.88;;;0.47;;
70026;SDS011;57506;50.092;15.804;2023-07-29T03:59:03;1.83;;;0.40;;
70026;SDS011;57506;50.092;15.804;2023-07-29T04:01:30;1.85;;;0.40;;
70026;SDS011;57506;50.092;15.804;2023-07-29T04:03:57;2.05;;;0.57;;
70026;SDS011;57506;50.092;15.804;2023-07-29T04:06:23;1.92;;;0.50;;
70026;SDS011;57506;50.092;15.804;2023-07-29T04:08:49;2.10;;;0.50;;
70026;SDS011;57506;50.092;15.804;2023-07-29T04:11:14;2.20;;;0.50;;
70026;SDS011;57506;50.092;15.804;2023-07-29T04:13:40;1.95;;;0.45;;
70026;SDS011;57506;50.092;15.804;2023-07-29T04:16:06;1.60;;;0.37;;
70026;SDS011;57506;50.092;15.804;2023-07-29T04:18:32;1.90;;;0.40;;
70026;SDS011;57506;50.092;15.804;2023-07-29T04:20:57;2.20;;;0.60;;
70026;SDS011;57506;50.092;15.804;2023-07-29T04:23:23;1.90;;;0.40;;
70026;SDS011;57506;50.092;15.804;2023-07-29T04:25:48;1.90;;;0.40;;
70026;SDS011;57506;50.092;15.804;2023-07-29T04:28:15;2.08;;;0.75;;
70026;SDS011;57506;50.092;15.804;2023-07-29T04:30:41;2.05;;;0.50;;
70026;SDS011;57506;50.092;15.804;2023-07-29T04:33:06;2.10;;;0.50;;
70026;SDS011;57506;50.092;15.804;2023-07-29T04:35:32;2.10;;;0.50;;
70026;SDS011;57506;50.092;15.804;2023-07-29T04:37:57;2.20;;;0.50;;
70026;SDS011;57506;50.092;15.804;2023-07-29T04:40:23;1.90;;;0.50;;
70026;SDS011;57506;50.092;15.804;2023-07-29T04:42:48;1.97;;;0.50;;
70026;SDS011;57506;50.092;15.804;2023-07-29T04:45:14;1.80;;;0.50;;
70026;SDS011;57506;50.092;15.804;2023-07-29T04:47:41;2.10;;;0.50;;
70026;SDS011;57506;50.092;15.804;2023-07-29T04:50:06;1.90;;;0.50;;
70026;SDS011;57506;50.092;15.804;2023-07-29T04:52:32;2.03;;;0.60;;
70026;SDS011;57506;50.092;15.804;2023-07-29T04:54:58;2.20;;;0.70;;
70026;SDS011;57506;50.092;15.804;2023-07-29T04:57:23;2.00;;;0.50;;
70026;SDS011;57506;50.092;15.804;2023-07-29T04:59:49;2.10;;;0.60;;
70026;SDS011;57506;50.092;15.804;2023-07-29T05:02:14;2.00;;;0.93;;
70026;SDS011;57506;50.092;15.804;2023-07-29T05:04:40;2.00;;;0.60;;
70026;SDS011;57506;50.092;15.804;2023-07-29T05:07:06;1.93;;;0.60;;
70026;SDS011;57506;50.092;15.804;2023-07-29T05:09:31;1.80;;;0.45;;
70026;SDS011;57506;50.092;15.804;2023-07-29T05:11:57;2.10;;;0.60;;
70026;SDS011;57506;50.092;15.804;2023-07-29T05:14:22;2.17;;;0.70;;
70026;SDS011;57506;50.092;15.804;2023-07-29T05:16:48;2.10;;;0.70;;
70026;SDS011;57506;50.092;15.804;2023-07-29T05:19:14;2.15;;;0.60;;
70026;SDS011;57506;50.092;15.804;2023-07-29T05:21:39;2.10;;;0.60;;
70026;SDS011;57506;50.092;15.804;2023-07-29T05:24:05;2.10;;;0.60;;
70026;SDS011;57506;50.092;15.804;2023-07-29T05:26:31;2.10;;;0.70;;
70026;SDS011;57506;50.092;15.804;2023-07-29T05:28:57;2.10;;;0.70;;
70026;SDS011;57506;50.092;15.804;2023-07-29T05:31:23;2.07;;;0.60;;
70026;SDS011;57506;50.092;15.804;2023-07-29T05:33:48;2.10;;;0.70;;
70026;SDS011;57506;50.092;15.804;2023-07-29T05:36:14;2.10;;;0.60;;
70026;SDS011;57506;50.092;15.804;2023-07-29T05:38:40;2.03;;;0.60;;
70026;SDS011;57506;50.092;15.804;2023-07-29T05:41:06;1.60;;;0.38;;
70026;SDS011;57506;50.092;15.804;2023-07-29T05:43:32;2.10;;;0.60;;
70026;SDS011;57506;50.092;15.804;2023-07-29T05:45:57;2.00;;;0.57;;
70026;SDS011;57506;50.092;15.804;2023-07-29T05:48:26;2.00;;;0.57;;
70026;SDS011;57506;50.092;15.804;2023-07-29T05:50:52;2.10;;;0.70;;
70026;SDS011;57506;50.092;15.804;2023-07-29T05:53:18;2.13;;;0.70;;
70026;SDS011;57506;50.092;15.804;2023-07-29T05:55:43;2.00;;;0.60;;
70026;SDS011;57506;50.092;15.804;2023-07-29T05:58:09;2.65;;;1.00;;
70026;SDS011;57506;50.092;15.804;2023-07-29T06:00:34;2.30;;;0.77;;
70026;SDS011;57506;50.092;15.804;2023-07-29T06:03:00;2.20;;;0.70;;
70026;SDS011;57506;50.092;15.804;2023-07-29T06:05:26;2.10;;;0.60;;
70026;SDS011;57506;50.092;15.804;2023-07-29T06:07:51;2.00;;;0.60;;
70026;SDS011;57506;50.092;15.804;2023-07-29T06:10:17;2.20;;;0.73;;
70026;SDS011;57506;50.092;15.804;2023-07-29T06:12:43;2.77;;;1.00;;
70026;SDS011;57506;50.092;15.804;2023-07-29T06:15:09;2.70;;;1.30;;
70026;SDS011;57506;50.092;15.804;2023-07-29T06:17:35;2.40;;;1.00;;
70026;SDS011;57506;50.092;15.804;2023-07-29T06:20:01;2.07;;;0.53;;
70026;SDS011;57506;50.092;15.804;2023-07-29T06:22:27;2.33;;;0.85;;
70026;SDS011;57506;50.092;15.804;2023-07-29T06:24:53;2.30;;;0.97;;
70026;SDS011;57506;50.092;15.804;2023-07-29T06:27:18;2.00;;;0.60;;
70026;SDS011;57506;50.092;15.804;2023-07-29T06:29:44;1.90;;;0.40;;
70026;SDS011;57506;50.092;15.804;2023-07-29T06:32:09;2.17;;;0.77;;
70026;SDS011;57506;50.092;15.804;2023-07-29T06:34:35;2.17;;;0.60;;
70026;SDS011;57506;50.092;15.804;2023-07-29T06:37:01;1.90;;;0.60;;
70026;SDS011;57506;50.092;15.804;2023-07-29T06:39:26;2.22;;;0.65;;
70026;SDS011;57506;50.092;15.804;2023-07-29T06:41:52;2.27;;;0.90;;
70026;SDS011;57506;50.092;15.804;2023-07-29T06:44:17;2.20;;;0.73;;
70026;SDS011;57506;50.092;15.804;2023-07-29T06:46:43;1.73;;;0.50;;
70026;SDS011;57506;50.092;15.804;2023-07-29T06:49:08;2.03;;;0.70;;
70026;SDS011;57506;50.092;15.804;2023-07-29T06:51:34;1.87;;;0.50;;
70026;SDS011;57506;50.092;15.804;2023-07-29T06:54:03;2.20;;;0.68;;
70026;SDS011;57506;50.092;15.804;2023-07-29T06:56:29;2.30;;;0.60;;
70026;SDS011;57506;50.092;15.804;2023-07-29T06:58:54;2.70;;;1.10;;
70026;SDS011;57506;50.092;15.804;2023-07-29T07:01:20;2.72;;;1.33;;
70026;SDS011;57506;50.092;15.804;2023-07-29T07:03:45;2.20;;;0.70;;
70026;SDS011;57506;50.092;15.804;2023-07-29T07:06:11;2.07;;;0.70;;
70026;SDS011;57506;50.092;15.804;2023-07-29T07:08:37;2.30;;;0.90;;
70026;SDS011;57506;50.092;15.804;2023-07-29T07:11:02;2.20;;;0.70;;
70026;SDS011;57506;50.092;15.804;2023-07-29T07:13:28;2.10;;;0.60;;
70026;SDS011;57506;50.092;15.804;2023-07-29T07:15:56;2.45;;;0.80;;
70026;SDS011;57506;50.092;15.804;2023-07-29T07:18:22;2.67;;;1.15;;
70026;SDS011;57506;50.092;15.804;2023-07-29T07:20:48;3.10;;;1.30;;
70026;SDS011;57506;50.092;15.804;2023-07-29T07:23:15;2.30;;;0.80;;
70026;SDS011;57506;50.092;15.804;2023-07-29T07:25:40;2.40;;;0.98;;
70026;SDS011;57506;50.092;15.804;2023-07-29T07:28:08;2.40;;;1.00;;
70026;SDS011;57506;50.092;15.804;2023-07-29T07:30:34;2.23;;;0.90;;
70026;SDS011;57506;50.092;15.804;2023-07-29T07:33:00;3.15;;;1.30;;
70026;SDS011;57506;50.092;15.804;2023-07-29T07:35:26;2.30;;;0.80;;
70026;SDS011;57506;50.092;15.804;2023-07-29T07:37:52;2.10;;;0.67;;
70026;SDS011;57506;50.092;15.804;2023-07-29T07:40:17;2.28;;;0.80;;
70026;SDS011;57506;50.092;15.804;2023-07-29T07:42:43;2.40;;;0.90;;
70026;SDS011;57506;50.092;15.804;2023-07-29T07:45:09;2.10;;;0.70;;
70026;SDS011;57506;50.092;15.804;2023-07-29T07:47:34;2.00;;;0.60;;
70026;SDS011;57506;50.092;15.804;2023-07-29T07:50:00;2.30;;;0.93;;
70026;SDS011;57506;50.092;15.804;2023-07-29T07:52:25;1.75;;;0.40;;
70026;SDS011;57506;50.092;15.804;2023-07-29T07:54:53;1.90;;;0.50;;
70026;SDS011;57506;50.092;15.804;2023-07-29T07:57:20;2.10;;;0.60;;
70026;SDS011;57506;50.092;15.804;2023-07-29T07:59:47;2.22;;;0.80;;
70026;SDS011;57506;50.092;15.804;2023-07-29T08:02:12;2.20;;;0.70;;
70026;SDS011;57506;50.092;15.804;2023-07-29T08:04:38;2.10;;;0.60;;
70026;SDS011;57506;50.092;15.804;2023-07-29T08:07:04;2.30;;;0.85;;
70026;SDS011;57506;50.092;15.804;2023-07-29T08:09:29;2.20;;;0.70;;
70026;SDS011;57506;50.092;15.804;2023-07-29T08:11:55;1.90;;;0.50;;
70026;SDS011;57506;50.092;15.804;2023-07-29T08:14:20;1.87;;;0.50;;
70026;SDS011;57506;50.092;15.804;2023-07-29T08:16:46;2.95;;;1.00;;
70026;SDS011;57506;50.092;15.804;2023-07-29T08:19:11;1.97;;;0.60;;
70026;SDS011;57506;50.092;15.804;2023-07-29T08:21:37;2.20;;;0.73;;
70026;SDS011;57506;50.092;15.804;2023-07-29T08:24:03;2.20;;;0.80;;
70026;SDS011;57506;50.092;15.804;2023-07-29T08:26:29;2.10;;;0.63;;
70026;SDS011;57506;50.092;15.804;2023-07-29T08:28:54;1.97;;;0.50;;
70026;SDS011;57506;50.092;15.804;2023-07-29T08:31:20;2.20;;;0.80;;
70026;SDS011;57506;50.092;15.804;2023-07-29T08:33:45;2.20;;;0.80;;
70026;SDS011;57506;50.092;15.804;2023-07-29T08:36:11;2.30;;;0.90;;
70026;SDS011;57506;50.092;15.804;2023-07-29T08:38:36;2.30;;;0.83;;
70026;SDS011;57506;50.092;15.804;2023-07-29T08:41:16;2.40;;;0.90;;
70026;SDS011;57506;50.092;15.804;2023-07-29T08:44:31;2.30;;;0.90;;
70026;SDS011;57506;50.092;15.804;2023-07-29T08:46:33;2.10;;;0.60;;
70026;SDS011;57506;50.092;15.804;2023-07-29T08:48:59;2.37;;;0.97;;
70026;SDS011;57506;50.092;15.804;2023-07-29T08:51:26;2.20;;;0.80;;
70026;SDS011;57506;50.092;15.804;2023-07-29T08:53:52;2.38;;;1.00;;
70026;SDS011;57506;50.092;15.804;2023-07-29T08:56:19;2.20;;;0.80;;
70026;SDS011;57506;50.092;15.804;2023-07-29T08:58:45;2.50;;;1.17;;
70026;SDS011;57506;50.092;15.804;2023-07-29T09:01:11;2.30;;;0.95;;
70026;SDS011;57506;50.092;15.804;2023-07-29T09:03:37;2.10;;;0.70;;
70026;SDS011;57506;50.092;15.804;2023-07-29T09:06:03;2.30;;;1.00;;
70026;SDS011;57506;50.092;15.804;2023-07-29T09:08:28;2.40;;;1.00;;
70026;SDS011;57506;50.092;15.804;2023-07-29T09:10:54;2.35;;;0.98;;
70026;SDS011;57506;50.092;15.804;2023-07-29T09:13:21;2.30;;;0.70;;
70026;SDS011;57506;50.092;15.804;2023-07-29T09:15:47;2.25;;;0.77;;
70026;SDS011;57506;50.092;15.804;2023-07-29T09:18:16;2.20;;;0.70;;
70026;SDS011;57506;50.092;15.804;2023-07-29T09:20:45;2.40;;;0.77;;
70026;SDS011;57506;50.092;15.804;2023-07-29T09:23:13;2.20;;;0.60;;
70026;SDS011;57506;50.092;15.804;2023-07-29T09:25:39;2.05;;;0.60;;
70026;SDS011;57506;50.092;15.804;2023-07-29T09:31:38;2.60;;;0.90;;
70026;SDS011;57506;50.092;15.804;2023-07-29T09:34:04;2.70;;;1.10;;
70026;SDS011;57506;50.092;15.804;2023-07-29T09:36:31;2.58;;;1.23;;
70026;SDS011;57506;50.092;15.804;2023-07-29T09:38:57;2.47;;;1.10;;
70026;SDS011;57506;50.092;15.804;2023-07-29T09:41:27;3.27;;;1.30;;
70026;SDS011;57506;50.092;15.804;2023-07-29T09:43:57;2.30;;;0.73;;
70026;SDS011;57506;50.092;15.804;2023-07-29T09:46:24;2.40;;;1.05;;
70026;SDS011;57506;50.092;15.804;2023-07-29T09:48:52;2.30;;;1.00;;
70026;SDS011;57506;50.092;15.804;2023-07-29T09:51:22;2.30;;;0.77;;
70026;SDS011;57506;50.092;15.804;2023-07-29T09:53:47;2.40;;;0.87;;
70026;SDS011;57506;50.092;15.804;2023-07-29T09:56:15;2.25;;;0.77;;
70026;SDS011;57506;50.092;15.804;2023-07-29T09:58:42;2.20;;;0.60;;
70026;SDS011;57506;50.092;15.804;2023-07-29T10:01:11;2.20;;;0.70;;
70026;SDS011;57506;50.092;15.804;2023-07-29T10:03:37;2.40;;;1.00;;
70026;SDS011;57506;50.092;15.804;2023-07-29T10:06:03;2.63;;;1.40;;
70026;SDS011;57506;50.092;15.804;2023-07-29T10:08:30;2.30;;;0.90;;
70026;SDS011;57506;50.092;15.804;2023-07-29T10:11:00;2.50;;;1.15;;
70026;SDS011;57506;50.092;15.804;2023-07-29T10:13:27;2.40;;;0.98;;
70026;SDS011;57506;50.092;15.804;2023-07-29T10:15:53;3.80;;;1.60;;
70026;SDS011;57506;50.092;15.804;2023-07-29T10:18:21;3.63;;;1.40;;
70026;SDS011;57506;50.092;15.804;2023-07-29T10:20:48;2.78;;;1.38;;
70026;SDS011;57506;50.092;15.804;2023-07-29T10:23:17;3.63;;;1.42;;
70026;SDS011;57506;50.092;15.804;2023-07-29T10:25:46;3.47;;;1.23;;
70026;SDS011;57506;50.092;15.804;2023-07-29T10:28:15;2.47;;;1.10;;
70026;SDS011;57506;50.092;15.804;2023-07-29T10:30:44;2.50;;;1.20;;
70026;SDS011;57506;50.092;15.804;2023-07-29T10:33:10;2.45;;;1.05;;
70026;SDS011;57506;50.092;15.804;2023-07-29T10:35:35;2.60;;;1.43;;
70026;SDS011;57506;50.092;15.804;2023-07-29T10:38:02;2.40;;;1.00;;
70026;SDS011;57506;50.092;15.804;2023-07-29T10:40:46;2.60;;;1.20;;
70026;SDS011;57506;50.092;15.804;2023-07-29T10:43:18;2.38;;;0.88;;
70026;SDS011;57506;50.092;15.804;2023-07-29T10:45:49;2.50;;;1.20;;
70026;SDS011;57506;50.092;15.804;2023-07-29T10:53:55;3.58;;;1.30;;
70026;SDS011;57506;50.092;15.804;2023-07-29T10:56:31;3.13;;;1.38;;
70026;SDS011;57506;50.092;15.804;2023-07-29T10:58:59;2.30;;;0.97;;
70026;SDS011;57506;50.092;15.804;2023-07-29T11:01:51;2.30;;;0.90;;
70026;SDS011;57506;50.092;15.804;2023-07-29T11:04:27;1.55;;;0.50;;
70026;SDS011;57506;50.092;15.804;2023-07-29T11:09:41;2.40;;;1.05;;
70026;SDS011;57506;50.092;15.804;2023-07-29T11:20:31;1.83;;;0.70;;
70026;SDS011;57506;50.092;15.804;2023-07-29T11:22:59;2.58;;;1.20;;
70026;SDS011;57506;50.092;15.804;2023-07-29T11:25:28;2.20;;;0.80;;
70026;SDS011;57506;50.092;15.804;2023-07-29T11:27:56;2.38;;;1.00;;
70026;SDS011;57506;50.092;15.804;2023-07-29T11:30:23;2.88;;;1.02;;
70026;SDS011;57506;50.092;15.804;2023-07-29T11:32:51;2.30;;;0.82;;
70026;SDS011;57506;50.092;15.804;2023-07-29T11:35:18;3.30;;;1.10;;
70026;SDS011;57506;50.092;15.804;2023-07-29T11:37:45;2.30;;;1.00;;
70026;SDS011;57506;50.092;15.804;2023-07-29T11:42:42;2.40;;;1.00;;
70026;SDS011;57506;50.092;15.804;2023-07-29T11:45:07;2.80;;;1.20;;
70026;SDS011;57506;50.092;15.804;2023-07-29T11:47:34;2.20;;;1.00;;
70026;SDS011;57506;50.092;15.804;2023-07-29T11:50:04;1.90;;;0.70;;
70026;SDS011;57506;50.092;15.804;2023-07-29T11:52:32;2.70;;;1.30;;
70026;SDS011;57506;50.092;15.804;2023-07-29T11:55:00;2.50;;;1.00;;
70026;SDS011;57506;50.092;15.804;2023-07-29T11:57:27;2.40;;;1.10;;
70026;SDS011;57506;50.092;15.804;2023-07-29T11:59:52;2.07;;;0.73;;
70026;SDS011;57506;50.092;15.804;2023-07-29T12:02:19;2.88;;;1.30;;
70026;SDS011;57506;50.092;15.804;2023-07-29T12:04:46;2.73;;;1.37;;
70026;SDS011;57506;50.092;15.804;2023-07-29T12:07:13;10.35;;;1.27;;
70026;SDS011;57506;50.092;15.804;2023-07-29T12:09:39;2.78;;;1.65;;
70026;SDS011;57506;50.092;15.804;2023-07-29T12:12:06;2.28;;;0.98;;
70026;SDS011;57506;50.092;15.804;2023-07-29T12:14:33;2.60;;;1.13;;
70026;SDS011;57506;50.092;15.804;2023-07-29T12:17:00;2.60;;;1.43;;
70026;SDS011;57506;50.092;15.804;2023-07-29T12:19:33;2.40;;;1.00;;
70026;SDS011;57506;50.092;15.804;2023-07-29T12:22:03;2.30;;;1.00;;
70026;SDS011;57506;50.092;15.804;2023-07-29T12:24:33;2.60;;;1.40;;
70026;SDS011;57506;50.092;15.804;2023-07-29T12:27:00;2.50;;;1.20;;
70026;SDS011;57506;50.092;15.804;2023-07-29T12:29:26;2.50;;;1.30;;
70026;SDS011;57506;50.092;15.804;2023-07-29T12:31:59;2.50;;;1.25;;
70026;SDS011;57506;50.092;15.804;2023-07-29T12:34:27;2.70;;;1.27;;
70026;SDS011;57506;50.092;15.804;2023-07-29T12:36:54;2.50;;;1.10;;
70026;SDS011;57506;50.092;15.804;2023-07-29T12:39:21;2.60;;;1.27;;
70026;SDS011;57506;50.092;15.804;2023-07-29T12:41:49;2.40;;;1.10;;
70026;SDS011;57506;50.092;15.804;2023-07-29T12:44:15;2.40;;;1.17;;
70026;SDS011;57506;50.092;15.804;2023-07-29T12:46:41;2.37;;;1.10;;
70026;SDS011;57506;50.092;15.804;2023-07-29T12:49:06;2.22;;;0.93;;
70026;SDS011;57506;50.092;15.804;2023-07-29T12:51:32;2.30;;;0.90;;
70026;SDS011;57506;50.092;15.804;2023-07-29T12:53:59;2.35;;;1.00;;
70026;SDS011;57506;50.092;15.804;2023-07-29T12:56:25;3.00;;;0.95;;
70026;SDS011;57506;50.092;15.804;2023-07-29T12:58:51;3.03;;;1.50;;
70026;SDS011;57506;50.092;15.804;2023-07-29T13:01:18;8.13;;;2.03;;
70026;SDS011;57506;50.092;15.804;2023-07-29T13:11:46;4.45;;;1.35;;
70026;SDS011;57506;50.092;15.804;2023-07-29T13:14:32;4.72;;;0.88;;
70026;SDS011;57506;50.092;15.804;2023-07-29T13:16:57;2.07;;;0.50;;
70026;SDS011;57506;50.092;15.804;2023-07-29T13:19:23;2.38;;;0.95;;
70026;SDS011;57506;50.092;15.804;2023-07-29T13:21:50;2.27;;;0.60;;
70026;SDS011;57506;50.092;15.804;2023-07-29T13:24:16;2.20;;;0.70;;
70026;SDS011;57506;50.092;15.804;2023-07-29T13:26:41;2.10;;;0.60;;
70026;SDS011;57506;50.092;15.804;2023-07-29T13:29:07;1.83;;;0.40;;
70026;SDS011;57506;50.092;15.804;2023-07-29T13:31:33;1.88;;;0.40;;
70026;SDS011;57506;50.092;15.804;2023-07-29T13:33:58;1.87;;;0.40;;
70026;SDS011;57506;50.092;15.804;2023-07-29T13:36:24;1.85;;;0.40;;
70026;SDS011;57506;50.092;15.804;2023-07-29T13:38:49;2.10;;;0.70;;
70026;SDS011;57506;50.092;15.804;2023-07-29T13:41:15;2.13;;;0.60;;
70026;SDS011;57506;50.092;15.804;2023-07-29T13:43:40;2.15;;;0.70;;
70026;SDS011;57506;50.092;15.804;2023-07-29T13:46:06;1.60;;;0.30;;
70026;SDS011;57506;50.092;15.804;2023-07-29T13:48:32;2.10;;;0.60;;
70026;SDS011;57506;50.092;15.804;2023-07-29T13:50:58;1.73;;;0.40;;
70026;SDS011;57506;50.092;15.804;2023-07-29T13:53:23;2.10;;;0.70;;
70026;SDS011;57506;50.092;15.804;2023-07-29T13:55:49;2.07;;;0.60;;
70026;SDS011;57506;50.092;15.804;2023-07-29T13:58:15;2.10;;;0.57;;
70026;SDS011;57506;50.092;15.804;2023-07-29T14:00:40;2.20;;;0.70;;
70026;SDS011;57506;50.092;15.804;2023-07-29T14:03:06;2.47;;;0.90;;
70026;SDS011;57506;50.092;15.804;2023-07-29T14:05:32;2.47;;;1.03;;
70026;SDS011;57506;50.092;15.804;2023-07-29T14:07:57;2.20;;;0.73;;
70026;SDS011;57506;50.092;15.804;2023-07-29T14:10:23;3.10;;;1.30;;
70026;SDS011;57506;50.092;15.804;2023-07-29T14:12:49;4.15;;;1.35;;
70026;SDS011;57506;50.092;15.804;2023-07-29T14:15:15;2.20;;;0.80;;
70026;SDS011;57506;50.092;15.804;2023-07-29T14:17:41;3.15;;;1.10;;
70026;SDS011;57506;50.092;15.804;2023-07-29T14:20:06;2.53;;;1.10;;
70026;SDS011;57506;50.092;15.804;2023-07-29T14:22:32;3.42;;;1.33;;
70026;SDS011;57506;50.092;15.804;2023-07-29T14:24:58;3.70;;;1.27;;
70026;SDS011;57506;50.092;15.804;2023-07-29T14:27:24;2.20;;;0.75;;
70026;SDS011;57506;50.092;15.804;2023-07-29T14:29:49;2.13;;;0.67;;
70026;SDS011;57506;50.092;15.804;2023-07-29T14:32:15;2.00;;;0.65;;
70026;SDS011;57506;50.092;15.804;2023-07-29T14:34:40;2.13;;;0.60;;
70026;SDS011;57506;50.092;15.804;2023-07-29T14:37:06;1.80;;;0.60;;
70026;SDS011;57506;50.092;15.804;2023-07-29T14:39:31;2.45;;;1.08;;
70026;SDS011;57506;50.092;15.804;2023-07-29T14:41:58;2.00;;;0.60;;
70026;SDS011;57506;50.092;15.804;2023-07-29T14:44:23;4.00;;;2.07;;
70026;SDS011;57506;50.092;15.804;2023-07-29T14:46:49;2.10;;;0.67;;
70026;SDS011;57506;50.092;15.804;2023-07-29T14:49:14;2.20;;;0.80;;
70026;SDS011;57506;50.092;15.804;2023-07-29T14:51:40;2.10;;;0.70;;
70026;SDS011;57506;50.092;15.804;2023-07-29T14:54:05;20.55;;;0.82;;
70026;SDS011;57506;50.092;15.804;2023-07-29T14:56:31;2.30;;;0.90;;
70026;SDS011;57506;50.092;15.804;2023-07-29T14:58:57;2.20;;;0.70;;
70026;SDS011;57506;50.092;15.804;2023-07-29T15:01:22;2.30;;;0.80;;
70026;SDS011;57506;50.092;15.804;2023-07-29T15:03:48;2.40;;;1.10;;
70026;SDS011;57506;50.092;15.804;2023-07-29T15:06:13;2.42;;;1.10;;